sensor_id;sensor_type;location;lat;lon;timestamp;pressure;altitude;pressure_sealevel;temperature;humidity
60055;BME280;45930;53.514;55.904;2023-05-22T00:00:32;48723.97;;;-149.77;75.05
60055;BME280;45930;53.514;55.904;2023-05-22T00:01:35;48716.03;;;-149.77;74.77
60055;BME280;45930;53.514;55.904;2023-05-22T00:02:37;48698.22;;;-149.77;74.80
60055;BME280;45930;53.514;55.904;2023-05-22T00:03:42;48688.31;;;-149.77;75.66
60055;BME280;45930;53.514;55.904;2023-05-22T00:04:43;48656.63;;;-149.77;76.36
60055;BME280;45930;53.514;55.904;2023-05-22T00:05:46;48660.59;;;-149.77;77.20
60055;BME280;45930;53.514;55.904;2023-05-22T00:06:48;48652.66;;;-149.77;77.30
60055;BME280;45930;53.514;55.904;2023-05-22T00:07:49;48620.97;;;-149.77;77.71
60055;BME280;45930;53.514;55.904;2023-05-22T00:08:49;48644.75;;;-149.77;76.79
60055;BME280;45930;53.514;55.904;2023-05-22T00:09:50;48664.53;;;-149.77;76.23
60055;BME280;45930;53.514;55.904;2023-05-22T00:10:51;48674.44;;;-149.77;76.65
60055;BME280;45930;53.514;55.904;2023-05-22T00:11:52;48652.66;;;-149.77;77.02
60055;BME280;45930;53.514;55.904;2023-05-22T00:12:53;48664.53;;;-149.77;77.10
60055;BME280;45930;53.514;55.904;2023-05-22T00:13:54;48684.34;;;-149.77;76.96
60055;BME280;45930;53.514;55.904;2023-05-22T00:14:54;48656.63;;;-149.77;77.42
60055;BME280;45930;53.514;55.904;2023-05-22T00:15:55;48672.47;;;-149.77;77.59
60055;BME280;45930;53.514;55.904;2023-05-22T00:16:56;48634.84;;;-149.77;77.21
60055;BME280;45930;53.514;55.904;2023-05-22T00:17:57;48700.19;;;-149.77;74.56
60055;BME280;45930;53.514;55.904;2023-05-22T00:18:58;48698.22;;;-149.77;73.71
60055;BME280;45930;53.514;55.904;2023-05-22T00:20:02;48716.03;;;-149.77;73.61
60055;BME280;45930;53.514;55.904;2023-05-22T00:21:10;48741.78;;;-149.77;71.31
60055;BME280;45930;53.514;55.904;2023-05-22T00:22:10;48781.41;;;-149.77;71.43
60055;BME280;45930;53.514;55.904;2023-05-22T00:23:12;48761.59;;;-149.77;72.04
60055;BME280;45930;53.514;55.904;2023-05-22T00:24:13;48779.41;;;-149.77;71.42
60055;BME280;45930;53.514;55.904;2023-05-22T00:25:14;48753.66;;;-149.77;71.75
60055;BME280;45930;53.514;55.904;2023-05-22T00:26:17;48777.44;;;-149.77;71.15
60055;BME280;45930;53.514;55.904;2023-05-22T00:27:17;48767.53;;;-149.77;70.59
60055;BME280;45930;53.514;55.904;2023-05-22T00:28:18;48751.69;;;-149.77;71.04
60055;BME280;45930;53.514;55.904;2023-05-22T00:29:19;48783.38;;;-149.77;71.23
60055;BME280;45930;53.514;55.904;2023-05-22T00:30:20;48765.56;;;-149.77;71.37
60055;BME280;45930;53.514;55.904;2023-05-22T00:31:21;48773.47;;;-149.77;71.82
60055;BME280;45930;53.514;55.904;2023-05-22T00:32:21;48779.41;;;-149.77;71.45
60055;BME280;45930;53.514;55.904;2023-05-22T00:33:22;48753.66;;;-149.77;72.49
60055;BME280;45930;53.514;55.904;2023-05-22T00:34:23;48765.56;;;-149.77;71.64
60055;BME280;45930;53.514;55.904;2023-05-22T00:35:24;48777.44;;;-149.77;71.76
60055;BME280;45930;53.514;55.904;2023-05-22T00:36:25;48793.28;;;-149.77;72.25
60055;BME280;45930;53.514;55.904;2023-05-22T00:37:26;48749.72;;;-149.77;71.56
60055;BME280;45930;53.514;55.904;2023-05-22T00:38:29;48757.63;;;-149.77;71.66
60055;BME280;45930;53.514;55.904;2023-05-22T00:39:31;48777.44;;;-149.77;71.69
60055;BME280;45930;53.514;55.904;2023-05-22T00:40:32;48755.66;;;-149.77;71.32
60055;BME280;45930;53.514;55.904;2023-05-22T00:41:33;48751.69;;;-149.77;72.69
60055;BME280;45930;53.514;55.904;2023-05-22T00:42:34;48753.66;;;-149.77;72.12
60055;BME280;45930;53.514;55.904;2023-05-22T00:43:37;48747.72;;;-149.77;72.10
60055;BME280;45930;53.514;55.904;2023-05-22T00:44:38;48781.41;;;-149.77;71.17
60055;BME280;45930;53.514;55.904;2023-05-22T00:45:39;48783.38;;;-149.77;71.13
60055;BME280;45930;53.514;55.904;2023-05-22T00:46:40;48785.34;;;-149.77;72.00
60055;BME280;45930;53.514;55.904;2023-05-22T00:47:42;48753.66;;;-149.77;72.74
60055;BME280;45930;53.514;55.904;2023-05-22T00:48:43;48743.75;;;-149.77;73.66
60055;BME280;45930;53.514;55.904;2023-05-22T00:49:44;48718.03;;;-149.77;73.74
60055;BME280;45930;53.514;55.904;2023-05-22T00:50:46;48688.31;;;-149.77;74.60
60055;BME280;45930;53.514;55.904;2023-05-22T00:51:47;48704.16;;;-149.77;74.69
60055;BME280;45930;53.514;55.904;2023-05-22T00:52:48;48735.84;;;-149.77;75.06
60055;BME280;45930;53.514;55.904;2023-05-22T00:53:49;48690.28;;;-149.77;75.07
60055;BME280;45930;53.514;55.904;2023-05-22T00:54:52;48702.19;;;-149.77;74.00
60055;BME280;45930;53.514;55.904;2023-05-22T00:55:55;48700.19;;;-149.77;74.80
60055;BME280;45930;53.514;55.904;2023-05-22T00:56:56;48696.22;;;-149.77;75.39
60055;BME280;45930;53.514;55.904;2023-05-22T00:57:57;48682.38;;;-149.77;75.68
60055;BME280;45930;53.514;55.904;2023-05-22T00:58:59;48664.53;;;-149.77;76.67
60055;BME280;45930;53.514;55.904;2023-05-22T01:00:01;48626.91;;;-149.77;77.22
60055;BME280;45930;53.514;55.904;2023-05-22T01:01:05;48652.66;;;-149.77;77.09
60055;BME280;45930;53.514;55.904;2023-05-22T01:02:09;48628.91;;;-149.77;77.32
60055;BME280;45930;53.514;55.904;2023-05-22T01:03:10;48632.84;;;-149.77;77.60
60055;BME280;45930;53.514;55.904;2023-05-22T01:04:11;48619.00;;;-149.77;77.74
60055;BME280;45930;53.514;55.904;2023-05-22T01:05:12;48609.09;;;-149.77;77.74
60055;BME280;45930;53.514;55.904;2023-05-22T01:06:18;48626.91;;;-149.77;77.59
60055;BME280;45930;53.514;55.904;2023-05-22T01:07:20;48611.06;;;-149.77;77.49
60055;BME280;45930;53.514;55.904;2023-05-22T01:08:23;48607.13;;;-149.77;77.55
60055;BME280;45930;53.514;55.904;2023-05-22T01:09:24;48607.13;;;-149.77;77.55
60055;BME280;45930;53.514;55.904;2023-05-22T01:10:26;48654.66;;;-149.77;76.72
60055;BME280;45930;53.514;55.904;2023-05-22T01:12:59;48609.09;;;-149.77;76.48
60055;BME280;45930;53.514;55.904;2023-05-22T01:14:11;48595.22;;;-149.77;76.53
60055;BME280;45930;53.514;55.904;2023-05-22T01:15:23;48648.69;;;-149.77;76.62
60055;BME280;45930;53.514;55.904;2023-05-22T01:16:43;48607.13;;;-149.77;75.96
60055;BME280;45930;53.514;55.904;2023-05-22T01:18:06;48648.69;;;-149.77;75.07
60055;BME280;45930;53.514;55.904;2023-05-22T01:28:01;48601.16;;;-149.77;76.42
60055;BME280;45930;53.514;55.904;2023-05-22T01:30:47;48609.09;;;-149.77;74.93
60055;BME280;45930;53.514;55.904;2023-05-22T01:31:50;48603.16;;;-149.77;75.16
60055;BME280;45930;53.514;55.904;2023-05-22T01:32:54;48603.16;;;-149.77;75.07
60055;BME280;45930;53.514;55.904;2023-05-22T01:33:59;48622.97;;;-149.77;75.37
60055;BME280;45930;53.514;55.904;2023-05-22T01:35:06;48605.13;;;-149.77;75.14
60055;BME280;45930;53.514;55.904;2023-05-22T01:36:09;48609.09;;;-149.77;74.97
60055;BME280;45930;53.514;55.904;2023-05-22T01:37:13;48644.75;;;-149.77;75.08
60055;BME280;45930;53.514;55.904;2023-05-22T01:38:15;48599.19;;;-149.77;75.57
60055;BME280;45930;53.514;55.904;2023-05-22T01:39:17;48624.94;;;-149.77;75.85
60055;BME280;45930;53.514;55.904;2023-05-22T01:40:19;48597.22;;;-149.77;76.42
60055;BME280;45930;53.514;55.904;2023-05-22T01:41:20;48579.38;;;-149.77;77.03
60055;BME280;45930;53.514;55.904;2023-05-22T01:42:21;48579.38;;;-149.77;77.21
60055;BME280;45930;53.514;55.904;2023-05-22T01:43:23;48551.66;;;-149.77;77.56
60055;BME280;45930;53.514;55.904;2023-05-22T01:44:23;48567.50;;;-149.77;77.74
60055;BME280;45930;53.514;55.904;2023-05-22T01:45:24;48551.66;;;-149.77;77.79
60055;BME280;45930;53.514;55.904;2023-05-22T01:46:29;48561.56;;;-149.77;77.44
60055;BME280;45930;53.514;55.904;2023-05-22T01:47:30;48583.34;;;-149.77;77.42
60055;BME280;45930;53.514;55.904;2023-05-22T01:48:36;48551.66;;;-149.77;78.09
60055;BME280;45930;53.514;55.904;2023-05-22T01:49:36;48539.78;;;-149.77;78.76
60055;BME280;45930;53.514;55.904;2023-05-22T01:50:38;48523.94;;;-149.77;79.22
60055;BME280;45930;53.514;55.904;2023-05-22T01:51:55;48496.22;;;-149.77;79.20
60055;BME280;45930;53.514;55.904;2023-05-22T01:53:28;48496.22;;;-149.77;79.44
60055;BME280;45930;53.514;55.904;2023-05-22T01:54:36;48514.03;;;-149.77;79.81
60055;BME280;45930;53.514;55.904;2023-05-22T01:56:51;48486.31;;;-149.77;81.22
60055;BME280;45930;53.514;55.904;2023-05-22T01:58:04;48488.28;;;-149.77;81.42
60055;BME280;45930;53.514;55.904;2023-05-22T02:00:15;48432.84;;;-149.77;82.09
60055;BME280;45930;53.514;55.904;2023-05-22T02:01:19;48440.75;;;-149.77;82.37
60055;BME280;45930;53.514;55.904;2023-05-22T02:02:23;48458.56;;;-149.77;82.43
60055;BME280;45930;53.514;55.904;2023-05-22T02:03:29;48442.75;;;-149.77;82.63
60055;BME280;45930;53.514;55.904;2023-05-22T02:04:30;48474.41;;;-149.77;82.48
60055;BME280;45930;53.514;55.904;2023-05-22T02:05:33;48462.53;;;-149.77;82.16
60055;BME280;45930;53.514;55.904;2023-05-22T02:06:38;48432.84;;;-149.77;82.42
60055;BME280;45930;53.514;55.904;2023-05-22T02:07:41;48454.63;;;-149.77;83.42
60055;BME280;45930;53.514;55.904;2023-05-22T02:08:42;48430.84;;;-149.77;83.47
60055;BME280;45930;53.514;55.904;2023-05-22T02:09:44;48436.78;;;-149.77;83.14
60055;BME280;45930;53.514;55.904;2023-05-22T02:10:47;48450.66;;;-149.77;83.29
60055;BME280;45930;53.514;55.904;2023-05-22T02:11:49;48420.94;;;-149.77;82.99
60055;BME280;45930;53.514;55.904;2023-05-22T02:12:51;48426.91;;;-149.77;82.65
60055;BME280;45930;53.514;55.904;2023-05-22T02:13:51;48450.66;;;-149.77;82.57
60055;BME280;45930;53.514;55.904;2023-05-22T02:14:53;48426.91;;;-149.77;82.50
60055;BME280;45930;53.514;55.904;2023-05-22T02:15:55;48442.75;;;-149.77;81.92
60055;BME280;45930;53.514;55.904;2023-05-22T02:16:56;48448.69;;;-149.77;81.28
60055;BME280;45930;53.514;55.904;2023-05-22T02:18:00;48448.69;;;-149.77;80.79
60055;BME280;45930;53.514;55.904;2023-05-22T02:19:01;48478.38;;;-149.77;79.63
60055;BME280;45930;53.514;55.904;2023-05-22T02:20:13;48476.41;;;-149.77;78.13
60055;BME280;45930;53.514;55.904;2023-05-22T02:21:14;48512.06;;;-149.77;75.73
60055;BME280;45930;53.514;55.904;2023-05-22T02:22:15;48518.00;;;-149.77;75.75
60055;BME280;45930;53.514;55.904;2023-05-22T02:23:16;48498.19;;;-149.77;75.22
60055;BME280;45930;53.514;55.904;2023-05-22T02:24:16;48545.72;;;-149.77;74.18
60055;BME280;45930;53.514;55.904;2023-05-22T02:25:17;48569.47;;;-149.77;73.59
60055;BME280;45930;53.514;55.904;2023-05-22T02:26:18;48557.59;;;-149.77;72.69
60055;BME280;45930;53.514;55.904;2023-05-22T02:27:19;48555.63;;;-149.77;72.36
60055;BME280;45930;53.514;55.904;2023-05-22T02:28:20;48587.31;;;-149.77;71.44
60055;BME280;45930;53.514;55.904;2023-05-22T02:29:21;48587.31;;;-149.77;70.27
60055;BME280;45930;53.514;55.904;2023-05-22T02:30:22;48615.03;;;-149.77;69.36
60055;BME280;45930;53.514;55.904;2023-05-22T02:31:23;48617.00;;;-149.77;69.04
60055;BME280;45930;53.514;55.904;2023-05-22T02:32:23;48642.75;;;-149.77;68.32
60055;BME280;45930;53.514;55.904;2023-05-22T02:33:24;48650.69;;;-149.77;67.26
60055;BME280;45930;53.514;55.904;2023-05-22T02:34:26;48680.38;;;-149.77;66.02
60055;BME280;45930;53.514;55.904;2023-05-22T02:35:27;48708.13;;;-149.77;64.51
60055;BME280;45930;53.514;55.904;2023-05-22T02:36:27;48704.16;;;-149.77;63.24
60055;BME280;45930;53.514;55.904;2023-05-22T02:37:30;48692.28;;;-149.77;63.62
60055;BME280;45930;53.514;55.904;2023-05-22T02:38:31;48781.41;;;-149.77;60.56
60055;BME280;45930;53.514;55.904;2023-05-22T02:39:32;48775.47;;;-149.77;59.66
60055;BME280;45930;53.514;55.904;2023-05-22T02:40:32;48832.88;;;-149.77;57.99
60055;BME280;45930;53.514;55.904;2023-05-22T02:41:33;48854.69;;;-149.77;57.17
60055;BME280;45930;53.514;55.904;2023-05-22T02:42:34;48830.91;;;-149.77;57.00
60055;BME280;45930;53.514;55.904;2023-05-22T02:43:36;48846.75;;;-149.77;56.37
60055;BME280;45930;53.514;55.904;2023-05-22T02:44:36;48856.66;;;-149.77;56.16
60055;BME280;45930;53.514;55.904;2023-05-22T02:45:37;48874.47;;;-149.77;56.17
60055;BME280;45930;53.514;55.904;2023-05-22T02:46:38;48850.72;;;-149.77;55.65
60055;BME280;45930;53.514;55.904;2023-05-22T02:47:39;48882.41;;;-149.77;55.09
60055;BME280;45930;53.514;55.904;2023-05-22T02:48:39;48850.72;;;-149.77;55.71
60055;BME280;45930;53.514;55.904;2023-05-22T02:49:40;48866.56;;;-149.77;56.25
60055;BME280;45930;53.514;55.904;2023-05-22T02:50:41;48880.44;;;-149.77;56.56
60055;BME280;45930;53.514;55.904;2023-05-22T02:51:43;48830.91;;;-149.77;57.48
60055;BME280;45930;53.514;55.904;2023-05-22T02:52:47;48828.94;;;-149.77;58.24
60055;BME280;45930;53.514;55.904;2023-05-22T02:53:49;48815.06;;;-149.77;58.80
60055;BME280;45930;53.514;55.904;2023-05-22T02:54:49;48842.78;;;-149.77;59.31
60055;BME280;45930;53.514;55.904;2023-05-22T02:55:50;48807.16;;;-149.77;59.41
60055;BME280;45930;53.514;55.904;2023-05-22T02:56:52;48823.00;;;-149.77;59.09
60055;BME280;45930;53.514;55.904;2023-05-22T02:57:53;48803.19;;;-149.77;58.55
60055;BME280;45930;53.514;55.904;2023-05-22T02:58:54;48817.03;;;-149.77;58.27
60055;BME280;45930;53.514;55.904;2023-05-22T02:59:56;48813.09;;;-149.77;57.94
60055;BME280;45930;53.514;55.904;2023-05-22T03:00:58;48815.06;;;-149.77;57.21
60055;BME280;45930;53.514;55.904;2023-05-22T03:01:59;48823.00;;;-149.77;57.28
60055;BME280;45930;53.514;55.904;2023-05-22T03:03:00;48824.97;;;-149.77;57.05
60055;BME280;45930;53.514;55.904;2023-05-22T03:04:01;48826.94;;;-149.77;56.15
60055;BME280;45930;53.514;55.904;2023-05-22T03:05:02;48854.69;;;-149.77;55.80
60055;BME280;45930;53.514;55.904;2023-05-22T03:06:05;48848.72;;;-149.77;55.55
60055;BME280;45930;53.514;55.904;2023-05-22T03:07:05;48866.56;;;-149.77;55.18
60055;BME280;45930;53.514;55.904;2023-05-22T03:08:06;48854.69;;;-149.77;55.26
60055;BME280;45930;53.514;55.904;2023-05-22T03:09:07;48888.34;;;-149.77;55.58
60055;BME280;45930;53.514;55.904;2023-05-22T03:10:08;48832.88;;;-149.77;56.49
60055;BME280;45930;53.514;55.904;2023-05-22T03:11:09;48848.72;;;-149.77;56.39
60055;BME280;45930;53.514;55.904;2023-05-22T03:12:11;48854.69;;;-149.77;56.20
60055;BME280;45930;53.514;55.904;2023-05-22T03:13:11;48862.59;;;-149.77;54.96
60055;BME280;45930;53.514;55.904;2023-05-22T03:14:12;48896.28;;;-149.77;54.36
60055;BME280;45930;53.514;55.904;2023-05-22T03:15:13;48898.25;;;-149.77;53.75
60055;BME280;45930;53.514;55.904;2023-05-22T03:16:14;48904.19;;;-149.77;53.22
60055;BME280;45930;53.514;55.904;2023-05-22T03:17:18;48882.41;;;-149.77;53.34
60055;BME280;45930;53.514;55.904;2023-05-22T03:18:19;48880.44;;;-149.77;53.33
60055;BME280;45930;53.514;55.904;2023-05-22T03:19:21;48896.28;;;-149.77;53.18
60055;BME280;45930;53.514;55.904;2023-05-22T03:20:22;48884.38;;;-149.77;52.67
60055;BME280;45930;53.514;55.904;2023-05-22T03:21:23;48874.47;;;-149.77;52.39
60055;BME280;45930;53.514;55.904;2023-05-22T03:22:24;48920.03;;;-149.77;51.53
60055;BME280;45930;53.514;55.904;2023-05-22T03:23:25;48941.81;;;-149.77;51.28
60055;BME280;45930;53.514;55.904;2023-05-22T03:24:26;48933.91;;;-149.77;50.60
60055;BME280;45930;53.514;55.904;2023-05-22T03:25:27;48922.03;;;-149.77;50.44
60055;BME280;45930;53.514;55.904;2023-05-22T03:26:28;48957.66;;;-149.77;50.06
60055;BME280;45930;53.514;55.904;2023-05-22T03:27:29;48924.00;;;-149.77;49.59
60055;BME280;45930;53.514;55.904;2023-05-22T03:28:29;48959.66;;;-149.77;48.82
60055;BME280;45930;53.514;55.904;2023-05-22T03:29:30;48955.69;;;-149.77;48.70
60055;BME280;45930;53.514;55.904;2023-05-22T03:30:31;49005.19;;;-149.77;47.34
60055;BME280;45930;53.514;55.904;2023-05-22T03:31:33;48973.50;;;-149.77;46.79
60055;BME280;45930;53.514;55.904;2023-05-22T03:32:34;49001.25;;;-149.77;46.07
60055;BME280;45930;53.514;55.904;2023-05-22T03:33:37;48981.44;;;-149.77;45.58
60055;BME280;45930;53.514;55.904;2023-05-22T03:34:38;49005.19;;;-149.77;45.58
60055;BME280;45930;53.514;55.904;2023-05-22T03:35:39;48997.28;;;-149.77;45.52
60055;BME280;45930;53.514;55.904;2023-05-22T03:36:40;49011.16;;;-149.77;45.50
60055;BME280;45930;53.514;55.904;2023-05-22T03:37:41;49017.09;;;-149.77;45.54
60055;BME280;45930;53.514;55.904;2023-05-22T03:38:42;48999.25;;;-149.77;45.41
60055;BME280;45930;53.514;55.904;2023-05-22T03:39:42;49017.09;;;-149.77;45.62
60055;BME280;45930;53.514;55.904;2023-05-22T03:40:43;48987.38;;;-149.77;45.63
60055;BME280;45930;53.514;55.904;2023-05-22T03:41:44;49015.09;;;-149.77;45.23
60055;BME280;45930;53.514;55.904;2023-05-22T03:42:45;49034.91;;;-149.77;44.58
60055;BME280;45930;53.514;55.904;2023-05-22T03:43:46;49044.81;;;-149.77;44.61
60055;BME280;45930;53.514;55.904;2023-05-22T03:44:47;49027.00;;;-149.77;44.44
60055;BME280;45930;53.514;55.904;2023-05-22T03:45:49;49023.03;;;-149.77;44.82
60055;BME280;45930;53.514;55.904;2023-05-22T03:46:50;49032.94;;;-149.77;44.65
60055;BME280;45930;53.514;55.904;2023-05-22T03:47:51;49021.06;;;-149.77;44.34
60055;BME280;45930;53.514;55.904;2023-05-22T03:48:52;49023.03;;;-149.77;44.23
60055;BME280;45930;53.514;55.904;2023-05-22T03:49:53;49048.78;;;-149.77;43.88
60055;BME280;45930;53.514;55.904;2023-05-22T03:50:53;49064.63;;;-149.77;43.55
60055;BME280;45930;53.514;55.904;2023-05-22T03:51:54;49070.56;;;-149.77;43.14
60055;BME280;45930;53.514;55.904;2023-05-22T03:52:55;49044.81;;;-149.77;42.92
60055;BME280;45930;53.514;55.904;2023-05-22T03:53:56;49042.84;;;-149.77;42.41
60055;BME280;45930;53.514;55.904;2023-05-22T03:54:57;49058.69;;;-149.77;42.20
60055;BME280;45930;53.514;55.904;2023-05-22T03:55:58;49078.50;;;-149.77;42.10
60055;BME280;45930;53.514;55.904;2023-05-22T03:56:59;49072.53;;;-149.77;42.00
60055;BME280;45930;53.514;55.904;2023-05-22T03:58:00;49094.34;;;-149.77;41.95
60055;BME280;45930;53.514;55.904;2023-05-22T03:59:02;49058.69;;;-149.77;41.41
60055;BME280;45930;53.514;55.904;2023-05-22T04:00:03;49060.66;;;-149.77;41.14
60055;BME280;45930;53.514;55.904;2023-05-22T04:01:09;49092.34;;;-149.77;41.04
60055;BME280;45930;53.514;55.904;2023-05-22T04:02:11;49084.44;;;-149.77;40.36
60055;BME280;45930;53.514;55.904;2023-05-22T04:03:12;49133.94;;;-149.77;39.92
60055;BME280;45930;53.514;55.904;2023-05-22T04:04:13;49096.31;;;-149.77;39.43
60055;BME280;45930;53.514;55.904;2023-05-22T04:05:16;49096.31;;;-149.77;39.58
60055;BME280;45930;53.514;55.904;2023-05-22T04:06:17;49092.34;;;-149.77;39.78
60055;BME280;45930;53.514;55.904;2023-05-22T04:07:21;49108.19;;;-149.77;39.53
60055;BME280;45930;53.514;55.904;2023-05-22T04:08:22;49106.22;;;-149.77;39.38
60055;BME280;45930;53.514;55.904;2023-05-22T04:09:25;49116.13;;;-149.77;39.00
60055;BME280;45930;53.514;55.904;2023-05-22T04:10:27;49128.00;;;-149.77;39.14
60055;BME280;45930;53.514;55.904;2023-05-22T04:11:27;49114.16;;;-149.77;38.82
60055;BME280;45930;53.514;55.904;2023-05-22T04:12:29;49108.19;;;-149.77;38.62
60055;BME280;45930;53.514;55.904;2023-05-22T04:13:30;49120.09;;;-149.77;38.76
60055;BME280;45930;53.514;55.904;2023-05-22T04:14:32;49116.13;;;-149.77;39.10
60055;BME280;45930;53.514;55.904;2023-05-22T04:15:33;49120.09;;;-149.77;39.33
60055;BME280;45930;53.514;55.904;2023-05-22T04:16:34;49133.94;;;-149.77;38.95
60055;BME280;45930;53.514;55.904;2023-05-22T04:17:38;49141.88;;;-149.77;38.46
60055;BME280;45930;53.514;55.904;2023-05-22T04:18:39;49157.72;;;-149.77;38.03
60055;BME280;45930;53.514;55.904;2023-05-22T04:19:40;49112.16;;;-149.77;38.00
60055;BME280;45930;53.514;55.904;2023-05-22T04:20:41;49128.00;;;-149.77;38.12
60055;BME280;45930;53.514;55.904;2023-05-22T04:21:43;49151.78;;;-149.77;37.76
60055;BME280;45930;53.514;55.904;2023-05-22T04:22:44;49124.03;;;-149.77;37.08
60055;BME280;45930;53.514;55.904;2023-05-22T04:23:45;49169.59;;;-149.77;36.62
60055;BME280;45930;53.514;55.904;2023-05-22T04:24:47;49147.81;;;-149.77;36.45
60055;BME280;45930;53.514;55.904;2023-05-22T04:25:49;49167.63;;;-149.77;36.39
60055;BME280;45930;53.514;55.904;2023-05-22T04:26:50;49157.72;;;-149.77;35.49
60055;BME280;45930;53.514;55.904;2023-05-22T04:27:51;49157.72;;;-149.77;35.30
60055;BME280;45930;53.514;55.904;2023-05-22T04:28:51;49171.59;;;-149.77;35.07
60055;BME280;45930;53.514;55.904;2023-05-22T04:29:52;49173.56;;;-149.77;35.29
60055;BME280;45930;53.514;55.904;2023-05-22T04:30:55;49171.59;;;-149.77;35.56
60055;BME280;45930;53.514;55.904;2023-05-22T04:31:57;49177.53;;;-149.77;34.70
60055;BME280;45930;53.514;55.904;2023-05-22T04:32:59;49179.50;;;-149.77;34.83
60055;BME280;45930;53.514;55.904;2023-05-22T04:34:01;49179.50;;;-149.77;34.48
60055;BME280;45930;53.514;55.904;2023-05-22T04:35:04;49191.38;;;-149.77;34.63
60055;BME280;45930;53.514;55.904;2023-05-22T04:36:06;49183.47;;;-149.77;35.03
60055;BME280;45930;53.514;55.904;2023-05-22T04:37:09;49203.28;;;-149.77;35.29
60055;BME280;45930;53.514;55.904;2023-05-22T04:38:11;49193.38;;;-149.77;35.82
60055;BME280;45930;53.514;55.904;2023-05-22T04:39:13;49189.41;;;-149.77;35.98
60055;BME280;45930;53.514;55.904;2023-05-22T04:40:14;49195.34;;;-149.77;35.64
60055;BME280;45930;53.514;55.904;2023-05-22T04:41:15;49175.53;;;-149.77;35.22
60055;BME280;45930;53.514;55.904;2023-05-22T04:42:18;49189.41;;;-149.77;34.98
60055;BME280;45930;53.514;55.904;2023-05-22T04:43:19;49195.34;;;-149.77;35.55
60055;BME280;45930;53.514;55.904;2023-05-22T04:44:22;49195.34;;;-149.77;35.50
60055;BME280;45930;53.514;55.904;2023-05-22T04:45:24;49195.34;;;-149.77;35.03
60055;BME280;45930;53.514;55.904;2023-05-22T04:46:25;49183.47;;;-149.77;35.29
60055;BME280;45930;53.514;55.904;2023-05-22T04:47:28;49199.31;;;-149.77;35.46
60055;BME280;45930;53.514;55.904;2023-05-22T04:48:31;49193.38;;;-149.77;35.43
60055;BME280;45930;53.514;55.904;2023-05-22T04:49:32;49195.34;;;-149.77;35.23
60055;BME280;45930;53.514;55.904;2023-05-22T04:50:33;49203.28;;;-149.77;34.93
60055;BME280;45930;53.514;55.904;2023-05-22T04:51:35;49211.19;;;-149.77;34.65
60055;BME280;45930;53.514;55.904;2023-05-22T04:52:36;49209.22;;;-149.77;33.87
60055;BME280;45930;53.514;55.904;2023-05-22T04:53:37;49197.34;;;-149.77;33.61
60055;BME280;45930;53.514;55.904;2023-05-22T04:54:38;49195.34;;;-149.77;33.66
60055;BME280;45930;53.514;55.904;2023-05-22T04:55:39;49236.94;;;-149.77;33.71
60055;BME280;45930;53.514;55.904;2023-05-22T04:56:40;49234.97;;;-149.77;33.60
60055;BME280;45930;53.514;55.904;2023-05-22T04:57:41;49221.09;;;-149.77;33.42
60055;BME280;45930;53.514;55.904;2023-05-22T04:58:44;49209.22;;;-149.77;33.28
60055;BME280;45930;53.514;55.904;2023-05-22T04:59:45;49217.13;;;-149.77;33.18
60055;BME280;45930;53.514;55.904;2023-05-22T05:00:47;49254.78;;;-149.77;33.15
60055;BME280;45930;53.514;55.904;2023-05-22T05:01:48;49231.00;;;-149.77;32.93
60055;BME280;45930;53.514;55.904;2023-05-22T05:02:50;49252.78;;;-149.77;32.54
60055;BME280;45930;53.514;55.904;2023-05-22T05:03:50;49246.84;;;-149.77;32.71
60055;BME280;45930;53.514;55.904;2023-05-22T05:04:51;49248.84;;;-149.77;33.31
60055;BME280;45930;53.514;55.904;2023-05-22T05:05:52;49266.66;;;-149.77;33.33
60055;BME280;45930;53.514;55.904;2023-05-22T05:06:53;49240.91;;;-149.77;33.07
60055;BME280;45930;53.514;55.904;2023-05-22T05:07:54;49231.00;;;-149.77;32.64
60055;BME280;45930;53.514;55.904;2023-05-22T05:08:55;49250.81;;;-149.77;32.09
60055;BME280;45930;53.514;55.904;2023-05-22T05:09:56;49250.81;;;-149.77;32.50
60055;BME280;45930;53.514;55.904;2023-05-22T05:10:57;49250.81;;;-149.77;32.43
60055;BME280;45930;53.514;55.904;2023-05-22T05:11:58;49254.78;;;-149.77;32.07
60055;BME280;45930;53.514;55.904;2023-05-22T05:12:59;49246.84;;;-149.77;32.16
60055;BME280;45930;53.514;55.904;2023-05-22T05:14:00;49286.47;;;-149.77;31.67
60055;BME280;45930;53.514;55.904;2023-05-22T05:15:01;49254.78;;;-149.77;31.27
60055;BME280;45930;53.514;55.904;2023-05-22T05:16:02;49286.47;;;-149.77;30.79
60055;BME280;45930;53.514;55.904;2023-05-22T05:17:03;49260.72;;;-149.77;30.93
60055;BME280;45930;53.514;55.904;2023-05-22T05:18:06;49278.53;;;-149.77;31.14
60055;BME280;45930;53.514;55.904;2023-05-22T05:19:07;49270.63;;;-149.77;31.58
60055;BME280;45930;53.514;55.904;2023-05-22T05:20:08;49272.59;;;-149.77;31.58
60055;BME280;45930;53.514;55.904;2023-05-22T05:21:10;49290.44;;;-149.77;31.49
60055;BME280;45930;53.514;55.904;2023-05-22T05:22:10;49252.78;;;-149.77;31.10
60055;BME280;45930;53.514;55.904;2023-05-22T05:23:11;49270.63;;;-149.77;30.14
60055;BME280;45930;53.514;55.904;2023-05-22T05:24:12;49292.41;;;-149.77;30.14
60055;BME280;45930;53.514;55.904;2023-05-22T05:25:15;49272.59;;;-149.77;30.38
60055;BME280;45930;53.514;55.904;2023-05-22T05:26:16;49274.59;;;-149.77;31.02
60055;BME280;45930;53.514;55.904;2023-05-22T05:27:17;49304.28;;;-149.77;30.58
60055;BME280;45930;53.514;55.904;2023-05-22T05:28:18;49312.22;;;-149.77;30.59
60055;BME280;45930;53.514;55.904;2023-05-22T05:29:19;49274.59;;;-149.77;30.94
60055;BME280;45930;53.514;55.904;2023-05-22T05:30:20;49296.38;;;-149.77;31.07